sensor_id;sensor_type;location;lat;lon;timestamp;P1;durP1;ratioP1;P2;durP2;ratioP2
59930;SDS011;45790;51.538;6.736;2024-03-08T00:01:08;22.50;;;13.52;;
59930;SDS011;45790;51.538;6.736;2024-03-08T00:03:34;18.90;;;12.73;;
59930;SDS011;45790;51.538;6.736;2024-03-08T00:05:59;19.20;;;13.45;;
59930;SDS011;45790;51.538;6.736;2024-03-08T00:08:24;17.33;;;12.98;;
59930;SDS011;45790;51.538;6.736;2024-03-08T00:10:50;20.23;;;13.23;;
59930;SDS011;45790;51.538;6.736;2024-03-08T00:13:15;20.60;;;13.48;;
59930;SDS011;45790;51.538;6.736;2024-03-08T00:15:40;18.30;;;13.15;;
59930;SDS011;45790;51.538;6.736;2024-03-08T00:18:06;20.55;;;13.38;;
59930;SDS011;45790;51.538;6.736;2024-03-08T00:20:31;18.90;;;13.33;;
59930;SDS011;45790;51.538;6.736;2024-03-08T00:22:57;18.42;;;13.07;;
59930;SDS011;45790;51.538;6.736;2024-03-08T00:25:22;20.90;;;13.07;;
59930;SDS011;45790;51.538;6.736;2024-03-08T00:27:48;21.73;;;14.32;;
59930;SDS011;45790;51.538;6.736;2024-03-08T00:30:14;21.15;;;13.80;;
59930;SDS011;45790;51.538;6.736;2024-03-08T00:32:40;20.67;;;13.48;;
59930;SDS011;45790;51.538;6.736;2024-03-08T00:35:05;20.42;;;13.48;;
59930;SDS011;45790;51.538;6.736;2024-03-08T00:37:32;22.73;;;14.13;;
59930;SDS011;45790;51.538;6.736;2024-03-08T00:39:59;20.02;;;13.85;;
59930;SDS011;45790;51.538;6.736;2024-03-08T00:42:24;21.33;;;14.63;;
59930;SDS011;45790;51.538;6.736;2024-03-08T00:44:49;20.25;;;13.38;;
59930;SDS011;45790;51.538;6.736;2024-03-08T00:47:16;21.55;;;14.00;;
59930;SDS011;45790;51.538;6.736;2024-03-08T00:49:41;19.90;;;13.10;;
59930;SDS011;45790;51.538;6.736;2024-03-08T00:52:07;20.73;;;13.82;;
59930;SDS011;45790;51.538;6.736;2024-03-08T00:54:33;20.92;;;14.25;;
59930;SDS011;45790;51.538;6.736;2024-03-08T00:56:58;20.42;;;14.05;;
59930;SDS011;45790;51.538;6.736;2024-03-08T00:59:23;23.75;;;14.55;;
59930;SDS011;45790;51.538;6.736;2024-03-08T01:01:48;20.60;;;14.05;;
59930;SDS011;45790;51.538;6.736;2024-03-08T01:04:13;24.98;;;14.38;;
59930;SDS011;45790;51.538;6.736;2024-03-08T01:06:39;21.10;;;14.15;;
59930;SDS011;45790;51.538;6.736;2024-03-08T01:09:04;19.58;;;13.23;;
59930;SDS011;45790;51.538;6.736;2024-03-08T01:11:32;22.65;;;15.15;;
59930;SDS011;45790;51.538;6.736;2024-03-08T01:13:57;21.08;;;13.95;;
59930;SDS011;45790;51.538;6.736;2024-03-08T01:16:22;21.60;;;14.05;;
59930;SDS011;45790;51.538;6.736;2024-03-08T01:18:47;19.83;;;14.82;;
59930;SDS011;45790;51.538;6.736;2024-03-08T01:21:13;24.67;;;14.85;;
59930;SDS011;45790;51.538;6.736;2024-03-08T01:23:38;23.35;;;14.45;;
59930;SDS011;45790;51.538;6.736;2024-03-08T01:26:03;19.77;;;14.32;;
59930;SDS011;45790;51.538;6.736;2024-03-08T01:28:29;21.98;;;13.82;;
59930;SDS011;45790;51.538;6.736;2024-03-08T01:30:54;20.88;;;14.10;;
59930;SDS011;45790;51.538;6.736;2024-03-08T01:33:24;20.15;;;14.30;;
59930;SDS011;45790;51.538;6.736;2024-03-08T01:35:50;20.73;;;14.05;;
59930;SDS011;45790;51.538;6.736;2024-03-08T01:38:15;22.10;;;14.68;;
59930;SDS011;45790;51.538;6.736;2024-03-08T01:40:41;17.63;;;13.50;;
59930;SDS011;45790;51.538;6.736;2024-03-08T01:46:01;20.23;;;14.00;;
59930;SDS011;45790;51.538;6.736;2024-03-08T01:48:27;20.23;;;13.75;;
59930;SDS011;45790;51.538;6.736;2024-03-08T01:50:52;20.10;;;14.18;;
59930;SDS011;45790;51.538;6.736;2024-03-08T01:53:19;20.55;;;15.10;;
59930;SDS011;45790;51.538;6.736;2024-03-08T01:55:45;21.85;;;14.85;;
59930;SDS011;45790;51.538;6.736;2024-03-08T01:58:11;20.92;;;14.80;;
59930;SDS011;45790;51.538;6.736;2024-03-08T02:00:37;21.30;;;15.15;;
59930;SDS011;45790;51.538;6.736;2024-03-08T02:03:05;23.10;;;14.23;;
59930;SDS011;45790;51.538;6.736;2024-03-08T02:05:30;20.80;;;15.23;;
59930;SDS011;45790;51.538;6.736;2024-03-08T02:07:56;22.45;;;15.52;;
59930;SDS011;45790;51.538;6.736;2024-03-08T02:10:21;26.13;;;15.38;;
59930;SDS011;45790;51.538;6.736;2024-03-08T02:12:47;21.10;;;15.05;;
59930;SDS011;45790;51.538;6.736;2024-03-08T02:15:12;20.05;;;14.65;;
59930;SDS011;45790;51.538;6.736;2024-03-08T02:17:37;24.05;;;14.90;;
59930;SDS011;45790;51.538;6.736;2024-03-08T02:20:03;22.25;;;15.15;;
59930;SDS011;45790;51.538;6.736;2024-03-08T02:22:30;22.25;;;15.35;;
59930;SDS011;45790;51.538;6.736;2024-03-08T02:24:55;23.77;;;15.75;;
59930;SDS011;45790;51.538;6.736;2024-03-08T02:27:24;21.73;;;15.52;;
59930;SDS011;45790;51.538;6.736;2024-03-08T02:29:50;22.70;;;15.23;;
59930;SDS011;45790;51.538;6.736;2024-03-08T02:32:15;23.85;;;15.90;;
59930;SDS011;45790;51.538;6.736;2024-03-08T02:34:40;21.90;;;15.27;;
59930;SDS011;45790;51.538;6.736;2024-03-08T02:37:06;23.13;;;14.80;;
59930;SDS011;45790;51.538;6.736;2024-03-08T02:39:31;25.23;;;15.27;;
59930;SDS011;45790;51.538;6.736;2024-03-08T02:41:57;24.63;;;15.13;;
59930;SDS011;45790;51.538;6.736;2024-03-08T02:44:22;24.63;;;16.35;;
59930;SDS011;45790;51.538;6.736;2024-03-08T02:46:47;24.15;;;15.20;;
59930;SDS011;45790;51.538;6.736;2024-03-08T02:49:12;24.15;;;15.85;;
59930;SDS011;45790;51.538;6.736;2024-03-08T02:51:37;26.87;;;15.80;;
59930;SDS011;45790;51.538;6.736;2024-03-08T02:54:03;22.50;;;17.20;;
59930;SDS011;45790;51.538;6.736;2024-03-08T02:56:29;21.90;;;15.25;;
59930;SDS011;45790;51.538;6.736;2024-03-08T02:58:55;25.20;;;15.65;;
59930;SDS011;45790;51.538;6.736;2024-03-08T03:01:20;24.17;;;15.55;;
59930;SDS011;45790;51.538;6.736;2024-03-08T03:03:45;25.45;;;15.48;;
59930;SDS011;45790;51.538;6.736;2024-03-08T03:06:12;22.38;;;15.63;;
59930;SDS011;45790;51.538;6.736;2024-03-08T03:08:37;22.45;;;15.38;;
59930;SDS011;45790;51.538;6.736;2024-03-08T03:11:03;23.83;;;15.95;;
59930;SDS011;45790;51.538;6.736;2024-03-08T03:13:29;20.90;;;15.15;;
59930;SDS011;45790;51.538;6.736;2024-03-08T03:15:54;22.98;;;15.48;;
59930;SDS011;45790;51.538;6.736;2024-03-08T03:18:22;20.45;;;15.18;;
59930;SDS011;45790;51.538;6.736;2024-03-08T03:20:48;23.83;;;16.25;;
59930;SDS011;45790;51.538;6.736;2024-03-08T03:23:14;24.38;;;15.95;;
59930;SDS011;45790;51.538;6.736;2024-03-08T03:25:39;22.05;;;16.00;;
59930;SDS011;45790;51.538;6.736;2024-03-08T03:28:06;26.67;;;15.60;;
59930;SDS011;45790;51.538;6.736;2024-03-08T03:30:33;24.20;;;15.93;;
59930;SDS011;45790;51.538;6.736;2024-03-08T03:32:59;23.17;;;15.32;;
59930;SDS011;45790;51.538;6.736;2024-03-08T03:35:25;23.20;;;15.15;;
59930;SDS011;45790;51.538;6.736;2024-03-08T03:37:50;22.15;;;15.18;;
59930;SDS011;45790;51.538;6.736;2024-03-08T03:40:48;22.55;;;15.05;;
59930;SDS011;45790;51.538;6.736;2024-03-08T03:43:13;22.60;;;15.88;;
59930;SDS011;45790;51.538;6.736;2024-03-08T03:45:39;24.55;;;15.50;;
59930;SDS011;45790;51.538;6.736;2024-03-08T03:48:04;25.33;;;16.10;;
59930;SDS011;45790;51.538;6.736;2024-03-08T03:50:31;24.40;;;16.00;;
59930;SDS011;45790;51.538;6.736;2024-03-08T03:52:59;27.00;;;16.45;;
59930;SDS011;45790;51.538;6.736;2024-03-08T03:55:24;25.67;;;15.53;;
59930;SDS011;45790;51.538;6.736;2024-03-08T03:57:49;21.30;;;15.18;;
59930;SDS011;45790;51.538;6.736;2024-03-08T04:00:15;23.50;;;15.90;;
59930;SDS011;45790;51.538;6.736;2024-03-08T04:02:40;24.15;;;15.85;;
59930;SDS011;45790;51.538;6.736;2024-03-08T04:05:06;22.25;;;14.98;;
59930;SDS011;45790;51.538;6.736;2024-03-08T04:07:31;22.25;;;15.02;;
59930;SDS011;45790;51.538;6.736;2024-03-08T04:09:57;27.30;;;16.67;;
59930;SDS011;45790;51.538;6.736;2024-03-08T04:12:22;25.33;;;15.80;;
59930;SDS011;45790;51.538;6.736;2024-03-08T04:14:48;25.67;;;15.93;;
59930;SDS011;45790;51.538;6.736;2024-03-08T04:17:13;25.35;;;15.70;;
59930;SDS011;45790;51.538;6.736;2024-03-08T04:19:38;25.27;;;16.48;;
59930;SDS011;45790;51.538;6.736;2024-03-08T04:22:05;25.58;;;16.23;;
59930;SDS011;45790;51.538;6.736;2024-03-08T04:24:30;23.30;;;15.80;;
59930;SDS011;45790;51.538;6.736;2024-03-08T04:26:55;25.02;;;16.13;;
59930;SDS011;45790;51.538;6.736;2024-03-08T04:29:21;22.88;;;14.95;;
59930;SDS011;45790;51.538;6.736;2024-03-08T04:31:47;23.38;;;15.55;;
59930;SDS011;45790;51.538;6.736;2024-03-08T04:34:12;24.30;;;16.13;;
59930;SDS011;45790;51.538;6.736;2024-03-08T04:36:38;23.95;;;15.23;;
59930;SDS011;45790;51.538;6.736;2024-03-08T04:39:03;28.13;;;16.85;;
59930;SDS011;45790;51.538;6.736;2024-03-08T04:41:28;24.35;;;16.02;;
59930;SDS011;45790;51.538;6.736;2024-03-08T04:43:55;24.80;;;16.42;;
59930;SDS011;45790;51.538;6.736;2024-03-08T04:46:22;23.17;;;16.23;;
59930;SDS011;45790;51.538;6.736;2024-03-08T04:48:47;23.30;;;16.40;;
59930;SDS011;45790;51.538;6.736;2024-03-08T04:51:13;24.65;;;16.25;;
59930;SDS011;45790;51.538;6.736;2024-03-08T04:53:38;28.50;;;16.90;;
59930;SDS011;45790;51.538;6.736;2024-03-08T04:56:03;24.50;;;16.02;;
59930;SDS011;45790;51.538;6.736;2024-03-08T04:58:31;23.15;;;16.20;;
59930;SDS011;45790;51.538;6.736;2024-03-08T05:00:57;23.13;;;15.85;;
59930;SDS011;45790;51.538;6.736;2024-03-08T05:03:22;25.27;;;15.53;;
59930;SDS011;45790;51.538;6.736;2024-03-08T05:05:50;27.20;;;16.88;;
59930;SDS011;45790;51.538;6.736;2024-03-08T05:08:16;24.27;;;16.00;;
59930;SDS011;45790;51.538;6.736;2024-03-08T05:10:43;25.63;;;17.20;;
59930;SDS011;45790;51.538;6.736;2024-03-08T05:13:08;24.45;;;16.42;;
59930;SDS011;45790;51.538;6.736;2024-03-08T05:15:34;26.25;;;17.15;;
59930;SDS011;45790;51.538;6.736;2024-03-08T05:17:59;28.95;;;18.10;;
59930;SDS011;45790;51.538;6.736;2024-03-08T05:20:25;24.70;;;16.70;;
59930;SDS011;45790;51.538;6.736;2024-03-08T05:22:50;28.80;;;17.48;;
59930;SDS011;45790;51.538;6.736;2024-03-08T05:25:16;25.77;;;17.38;;
59930;SDS011;45790;51.538;6.736;2024-03-08T05:27:42;24.33;;;16.02;;
59930;SDS011;45790;51.538;6.736;2024-03-08T05:30:08;27.00;;;16.90;;
59930;SDS011;45790;51.538;6.736;2024-03-08T05:32:39;27.48;;;15.80;;
59930;SDS011;45790;51.538;6.736;2024-03-08T05:35:04;27.13;;;17.58;;
59930;SDS011;45790;51.538;6.736;2024-03-08T05:37:32;26.10;;;16.40;;
59930;SDS011;45790;51.538;6.736;2024-03-08T05:39:57;26.73;;;16.85;;
59930;SDS011;45790;51.538;6.736;2024-03-08T05:42:23;23.90;;;15.85;;
59930;SDS011;45790;51.538;6.736;2024-03-08T05:44:48;24.83;;;15.73;;
59930;SDS011;45790;51.538;6.736;2024-03-08T05:47:14;25.88;;;16.85;;
59930;SDS011;45790;51.538;6.736;2024-03-08T05:49:41;25.00;;;17.25;;
59930;SDS011;45790;51.538;6.736;2024-03-08T05:52:06;27.55;;;17.45;;
59930;SDS011;45790;51.538;6.736;2024-03-08T05:54:32;26.33;;;16.50;;
59930;SDS011;45790;51.538;6.736;2024-03-08T05:56:58;26.58;;;16.42;;
59930;SDS011;45790;51.538;6.736;2024-03-08T05:59:23;26.48;;;17.17;;
59930;SDS011;45790;51.538;6.736;2024-03-08T06:01:48;26.17;;;16.25;;
59930;SDS011;45790;51.538;6.736;2024-03-08T06:04:14;27.67;;;17.30;;
59930;SDS011;45790;51.538;6.736;2024-03-08T06:06:39;26.83;;;16.70;;
59930;SDS011;45790;51.538;6.736;2024-03-08T06:09:04;28.67;;;18.10;;
59930;SDS011;45790;51.538;6.736;2024-03-08T06:11:42;26.15;;;17.05;;
59930;SDS011;45790;51.538;6.736;2024-03-08T06:14:07;25.38;;;16.30;;
59930;SDS011;45790;51.538;6.736;2024-03-08T06:16:32;27.90;;;17.73;;
59930;SDS011;45790;51.538;6.736;2024-03-08T06:19:00;27.55;;;17.08;;
59930;SDS011;45790;51.538;6.736;2024-03-08T06:21:27;28.55;;;18.65;;
59930;SDS011;45790;51.538;6.736;2024-03-08T06:23:53;29.25;;;18.13;;
59930;SDS011;45790;51.538;6.736;2024-03-08T06:26:19;27.00;;;17.05;;
59930;SDS011;45790;51.538;6.736;2024-03-08T06:28:45;30.05;;;17.13;;
59930;SDS011;45790;51.538;6.736;2024-03-08T06:31:10;28.52;;;17.17;;
59930;SDS011;45790;51.538;6.736;2024-03-08T06:33:36;26.13;;;17.48;;
59930;SDS011;45790;51.538;6.736;2024-03-08T06:36:01;29.07;;;17.37;;
59930;SDS011;45790;51.538;6.736;2024-03-08T06:38:26;26.08;;;16.95;;
59930;SDS011;45790;51.538;6.736;2024-03-08T06:40:52;28.58;;;17.35;;
59930;SDS011;45790;51.538;6.736;2024-03-08T06:43:17;29.08;;;17.33;;
59930;SDS011;45790;51.538;6.736;2024-03-08T06:45:43;26.70;;;17.95;;
59930;SDS011;45790;51.538;6.736;2024-03-08T06:48:13;27.83;;;16.80;;
59930;SDS011;45790;51.538;6.736;2024-03-08T06:50:38;26.25;;;17.17;;
59930;SDS011;45790;51.538;6.736;2024-03-08T06:53:03;29.47;;;16.40;;
59930;SDS011;45790;51.538;6.736;2024-03-08T06:55:28;28.35;;;18.60;;
59930;SDS011;45790;51.538;6.736;2024-03-08T06:57:54;28.77;;;17.42;;
59930;SDS011;45790;51.538;6.736;2024-03-08T07:00:19;31.55;;;18.38;;
59930;SDS011;45790;51.538;6.736;2024-03-08T07:02:45;27.30;;;17.17;;
59930;SDS011;45790;51.538;6.736;2024-03-08T07:05:11;28.58;;;17.08;;
59930;SDS011;45790;51.538;6.736;2024-03-08T07:07:36;29.13;;;17.35;;
59930;SDS011;45790;51.538;6.736;2024-03-08T07:10:02;29.27;;;18.35;;
59930;SDS011;45790;51.538;6.736;2024-03-08T07:12:27;30.30;;;19.13;;
59930;SDS011;45790;51.538;6.736;2024-03-08T07:14:52;31.07;;;17.40;;
59930;SDS011;45790;51.538;6.736;2024-03-08T07:17:18;28.15;;;17.83;;
59930;SDS011;45790;51.538;6.736;2024-03-08T07:19:43;32.03;;;18.48;;
59930;SDS011;45790;51.538;6.736;2024-03-08T07:22:08;29.30;;;17.75;;
59930;SDS011;45790;51.538;6.736;2024-03-08T07:24:34;28.48;;;18.00;;
59930;SDS011;45790;51.538;6.736;2024-03-08T07:27:15;31.45;;;18.42;;
59930;SDS011;45790;51.538;6.736;2024-03-08T07:29:40;27.75;;;17.98;;
59930;SDS011;45790;51.538;6.736;2024-03-08T07:32:05;25.30;;;17.42;;
59930;SDS011;45790;51.538;6.736;2024-03-08T07:37:12;31.20;;;17.77;;
59930;SDS011;45790;51.538;6.736;2024-03-08T07:39:37;30.75;;;17.50;;
59930;SDS011;45790;51.538;6.736;2024-03-08T07:42:03;26.85;;;18.38;;
59930;SDS011;45790;51.538;6.736;2024-03-08T07:44:29;27.88;;;17.45;;
59930;SDS011;45790;51.538;6.736;2024-03-08T07:46:55;28.90;;;17.45;;
59930;SDS011;45790;51.538;6.736;2024-03-08T07:49:21;28.77;;;18.42;;
59930;SDS011;45790;51.538;6.736;2024-03-08T07:51:46;25.85;;;17.13;;
59930;SDS011;45790;51.538;6.736;2024-03-08T07:54:11;28.13;;;17.75;;
59930;SDS011;45790;51.538;6.736;2024-03-08T07:56:36;28.65;;;18.35;;
59930;SDS011;45790;51.538;6.736;2024-03-08T07:59:02;26.60;;;17.80;;
59930;SDS011;45790;51.538;6.736;2024-03-08T08:01:29;26.50;;;17.75;;
59930;SDS011;45790;51.538;6.736;2024-03-08T08:03:55;28.13;;;17.65;;
59930;SDS011;45790;51.538;6.736;2024-03-08T08:06:21;29.67;;;17.80;;
59930;SDS011;45790;51.538;6.736;2024-03-08T08:08:46;26.53;;;17.57;;
59930;SDS011;45790;51.538;6.736;2024-03-08T08:11:11;29.33;;;17.97;;
59930;SDS011;45790;51.538;6.736;2024-03-08T08:13:37;28.20;;;17.60;;
59930;SDS011;45790;51.538;6.736;2024-03-08T08:16:02;26.50;;;16.73;;
59930;SDS011;45790;51.538;6.736;2024-03-08T08:18:27;30.63;;;18.50;;
59930;SDS011;45790;51.538;6.736;2024-03-08T08:20:54;26.38;;;16.98;;
59930;SDS011;45790;51.538;6.736;2024-03-08T08:23:19;26.73;;;18.13;;
59930;SDS011;45790;51.538;6.736;2024-03-08T08:25:45;24.55;;;16.65;;
59930;SDS011;45790;51.538;6.736;2024-03-08T08:28:10;30.20;;;17.80;;
59930;SDS011;45790;51.538;6.736;2024-03-08T08:30:37;26.38;;;17.33;;
59930;SDS011;45790;51.538;6.736;2024-03-08T08:33:03;27.55;;;17.17;;
59930;SDS011;45790;51.538;6.736;2024-03-08T08:35:30;26.92;;;16.42;;
59930;SDS011;45790;51.538;6.736;2024-03-08T08:37:55;27.88;;;17.35;;
59930;SDS011;45790;51.538;6.736;2024-03-08T08:40:21;24.50;;;17.05;;
59930;SDS011;45790;51.538;6.736;2024-03-08T08:42:47;25.88;;;16.85;;
59930;SDS011;45790;51.538;6.736;2024-03-08T08:45:13;28.10;;;17.90;;
59930;SDS011;45790;51.538;6.736;2024-03-08T08:47:38;24.40;;;16.98;;
59930;SDS011;45790;51.538;6.736;2024-03-08T08:50:07;25.52;;;16.92;;
59930;SDS011;45790;51.538;6.736;2024-03-08T08:52:32;25.85;;;16.75;;
59930;SDS011;45790;51.538;6.736;2024-03-08T08:54:57;26.67;;;17.02;;
59930;SDS011;45790;51.538;6.736;2024-03-08T08:57:22;25.85;;;17.08;;
59930;SDS011;45790;51.538;6.736;2024-03-08T08:59:48;25.42;;;17.20;;
59930;SDS011;45790;51.538;6.736;2024-03-08T09:02:13;28.35;;;17.98;;
59930;SDS011;45790;51.538;6.736;2024-03-08T09:04:39;24.02;;;16.55;;
59930;SDS011;45790;51.538;6.736;2024-03-08T09:07:04;24.00;;;16.77;;
59930;SDS011;45790;51.538;6.736;2024-03-08T09:09:31;27.05;;;17.25;;
59930;SDS011;45790;51.538;6.736;2024-03-08T09:11:56;26.55;;;17.48;;
59930;SDS011;45790;51.538;6.736;2024-03-08T09:14:22;25.00;;;17.17;;
59930;SDS011;45790;51.538;6.736;2024-03-08T09:16:47;24.87;;;17.63;;
59930;SDS011;45790;51.538;6.736;2024-03-08T09:19:12;31.75;;;17.38;;
59930;SDS011;45790;51.538;6.736;2024-03-08T09:21:37;27.40;;;18.08;;
59930;SDS011;45790;51.538;6.736;2024-03-08T09:24:04;27.08;;;16.70;;
59930;SDS011;45790;51.538;6.736;2024-03-08T09:26:29;24.17;;;17.00;;
59930;SDS011;45790;51.538;6.736;2024-03-08T09:28:54;23.75;;;16.27;;
59930;SDS011;45790;51.538;6.736;2024-03-08T09:31:20;21.67;;;15.93;;
59930;SDS011;45790;51.538;6.736;2024-03-08T09:33:45;25.75;;;16.52;;
59930;SDS011;45790;51.538;6.736;2024-03-08T09:36:11;24.13;;;16.25;;
59930;SDS011;45790;51.538;6.736;2024-03-08T09:38:37;24.23;;;16.20;;
59930;SDS011;45790;51.538;6.736;2024-03-08T09:41:04;26.45;;;16.77;;
59930;SDS011;45790;51.538;6.736;2024-03-08T09:43:29;24.40;;;15.73;;
59930;SDS011;45790;51.538;6.736;2024-03-08T09:45:55;23.52;;;15.52;;
59930;SDS011;45790;51.538;6.736;2024-03-08T09:48:20;22.55;;;15.80;;
59930;SDS011;45790;51.538;6.736;2024-03-08T09:50:47;25.92;;;16.40;;
59930;SDS011;45790;51.538;6.736;2024-03-08T09:53:13;22.48;;;16.48;;
59930;SDS011;45790;51.538;6.736;2024-03-08T09:55:38;24.65;;;15.07;;
59930;SDS011;45790;51.538;6.736;2024-03-08T09:58:07;24.65;;;16.08;;
59930;SDS011;45790;51.538;6.736;2024-03-08T10:00:55;24.35;;;15.85;;
59930;SDS011;45790;51.538;6.736;2024-03-08T10:03:26;23.38;;;16.27;;
59930;SDS011;45790;51.538;6.736;2024-03-08T10:05:51;24.27;;;16.15;;
59930;SDS011;45790;51.538;6.736;2024-03-08T10:08:17;25.98;;;16.02;;
59930;SDS011;45790;51.538;6.736;2024-03-08T10:10:42;22.30;;;15.70;;
59930;SDS011;45790;51.538;6.736;2024-03-08T10:13:08;24.48;;;16.52;;
59930;SDS011;45790;51.538;6.736;2024-03-08T10:15:34;23.73;;;16.60;;
59930;SDS011;45790;51.538;6.736;2024-03-08T10:17:59;24.15;;;16.08;;
59930;SDS011;45790;51.538;6.736;2024-03-08T10:20:25;25.20;;;16.97;;
59930;SDS011;45790;51.538;6.736;2024-03-08T10:22:51;22.15;;;16.25;;
59930;SDS011;45790;51.538;6.736;2024-03-08T10:25:18;25.05;;;16.92;;
59930;SDS011;45790;51.538;6.736;2024-03-08T10:27:44;23.23;;;15.65;;
59930;SDS011;45790;51.538;6.736;2024-03-08T10:30:15;23.03;;;15.40;;
59930;SDS011;45790;51.538;6.736;2024-03-08T10:32:44;23.55;;;15.98;;
59930;SDS011;45790;51.538;6.736;2024-03-08T10:35:10;25.58;;;17.83;;
59930;SDS011;45790;51.538;6.736;2024-03-08T10:37:40;25.88;;;16.00;;
59930;SDS011;45790;51.538;6.736;2024-03-08T10:40:09;23.35;;;16.20;;
59930;SDS011;45790;51.538;6.736;2024-03-08T10:42:40;23.88;;;16.30;;
59930;SDS011;45790;51.538;6.736;2024-03-08T10:45:35;21.30;;;15.77;;
59930;SDS011;45790;51.538;6.736;2024-03-08T10:48:22;27.02;;;16.50;;
59930;SDS011;45790;51.538;6.736;2024-03-08T10:50:45;20.42;;;15.13;;
59930;SDS011;45790;51.538;6.736;2024-03-08T10:53:11;22.02;;;15.55;;
59930;SDS011;45790;51.538;6.736;2024-03-08T10:55:38;23.65;;;16.05;;
59930;SDS011;45790;51.538;6.736;2024-03-08T10:58:05;22.33;;;15.48;;
59930;SDS011;45790;51.538;6.736;2024-03-08T11:00:33;27.85;;;16.30;;
59930;SDS011;45790;51.538;6.736;2024-03-08T11:02:58;23.73;;;15.98;;
59930;SDS011;45790;51.538;6.736;2024-03-08T11:05:38;21.70;;;15.55;;
59930;SDS011;45790;51.538;6.736;2024-03-08T11:08:19;22.35;;;14.95;;
59930;SDS011;45790;51.538;6.736;2024-03-08T11:10:52;21.33;;;14.60;;
59930;SDS011;45790;51.538;6.736;2024-03-08T11:13:38;24.70;;;15.73;;
59930;SDS011;45790;51.538;6.736;2024-03-08T11:16:12;23.30;;;15.18;;
59930;SDS011;45790;51.538;6.736;2024-03-08T11:18:37;21.40;;;15.10;;
59930;SDS011;45790;51.538;6.736;2024-03-08T11:21:03;24.02;;;15.20;;
59930;SDS011;45790;51.538;6.736;2024-03-08T11:23:31;22.85;;;15.13;;
59930;SDS011;45790;51.538;6.736;2024-03-08T11:25:58;20.13;;;15.02;;
59930;SDS011;45790;51.538;6.736;2024-03-08T11:28:23;20.70;;;15.40;;
59930;SDS011;45790;51.538;6.736;2024-03-08T11:33:27;23.23;;;16.13;;
59930;SDS011;45790;51.538;6.736;2024-03-08T11:35:57;22.85;;;15.57;;
59930;SDS011;45790;51.538;6.736;2024-03-08T11:38:27;21.63;;;15.70;;
59930;SDS011;45790;51.538;6.736;2024-03-08T11:40:53;21.05;;;15.80;;
59930;SDS011;45790;51.538;6.736;2024-03-08T11:43:18;24.83;;;16.95;;
59930;SDS011;45790;51.538;6.736;2024-03-08T11:45:44;23.45;;;15.68;;
59930;SDS011;45790;51.538;6.736;2024-03-08T11:48:10;21.42;;;15.68;;
59930;SDS011;45790;51.538;6.736;2024-03-08T11:50:37;21.80;;;16.23;;
59930;SDS011;45790;51.538;6.736;2024-03-08T11:53:03;23.30;;;16.35;;
59930;SDS011;45790;51.538;6.736;2024-03-08T11:55:29;20.05;;;15.75;;
59930;SDS011;45790;51.538;6.736;2024-03-08T11:58:04;22.45;;;15.60;;
59930;SDS011;45790;51.538;6.736;2024-03-08T12:00:29;21.30;;;15.73;;
59930;SDS011;45790;51.538;6.736;2024-03-08T12:05:25;22.58;;;15.55;;
59930;SDS011;45790;51.538;6.736;2024-03-08T12:07:55;23.17;;;14.70;;
59930;SDS011;45790;51.538;6.736;2024-03-08T12:10:21;20.42;;;15.88;;
59930;SDS011;45790;51.538;6.736;2024-03-08T12:12:47;23.33;;;15.85;;
59930;SDS011;45790;51.538;6.736;2024-03-08T12:15:13;20.70;;;15.15;;
59930;SDS011;45790;51.538;6.736;2024-03-08T12:17:40;25.30;;;16.17;;
59930;SDS011;45790;51.538;6.736;2024-03-08T12:20:12;25.17;;;16.33;;
59930;SDS011;45790;51.538;6.736;2024-03-08T12:22:41;23.45;;;16.65;;
59930;SDS011;45790;51.538;6.736;2024-03-08T12:25:07;24.55;;;17.05;;
59930;SDS011;45790;51.538;6.736;2024-03-08T12:27:35;25.25;;;15.13;;
59930;SDS011;45790;51.538;6.736;2024-03-08T12:30:14;22.92;;;16.55;;
59930;SDS011;45790;51.538;6.736;2024-03-08T12:32:40;23.02;;;15.73;;
59930;SDS011;45790;51.538;6.736;2024-03-08T12:35:07;21.00;;;15.00;;
59930;SDS011;45790;51.538;6.736;2024-03-08T12:37:35;21.27;;;14.85;;
59930;SDS011;45790;51.538;6.736;2024-03-08T12:40:00;24.50;;;15.63;;
59930;SDS011;45790;51.538;6.736;2024-03-08T12:42:25;23.30;;;14.73;;
59930;SDS011;45790;51.538;6.736;2024-03-08T12:44:50;23.83;;;14.85;;
59930;SDS011;45790;51.538;6.736;2024-03-08T12:47:16;21.05;;;13.85;;
59930;SDS011;45790;51.538;6.736;2024-03-08T12:49:41;21.40;;;14.57;;
59930;SDS011;45790;51.538;6.736;2024-03-08T12:52:08;19.83;;;14.73;;
59930;SDS011;45790;51.538;6.736;2024-03-08T12:54:34;19.52;;;14.55;;
59930;SDS011;45790;51.538;6.736;2024-03-08T12:56:59;21.08;;;14.13;;
59930;SDS011;45790;51.538;6.736;2024-03-08T12:59:24;19.42;;;14.88;;
59930;SDS011;45790;51.538;6.736;2024-03-08T13:01:50;19.63;;;14.20;;
59930;SDS011;45790;51.538;6.736;2024-03-08T13:04:17;18.17;;;14.07;;
59930;SDS011;45790;51.538;6.736;2024-03-08T13:06:43;22.45;;;13.73;;
59930;SDS011;45790;51.538;6.736;2024-03-08T13:09:11;21.50;;;14.07;;
59930;SDS011;45790;51.538;6.736;2024-03-08T13:11:36;20.48;;;13.57;;
59930;SDS011;45790;51.538;6.736;2024-03-08T13:14:02;20.95;;;13.98;;
59930;SDS011;45790;51.538;6.736;2024-03-08T13:16:28;20.38;;;13.48;;
59930;SDS011;45790;51.538;6.736;2024-03-08T13:18:54;16.75;;;12.73;;
59930;SDS011;45790;51.538;6.736;2024-03-08T13:21:21;19.52;;;12.98;;
59930;SDS011;45790;51.538;6.736;2024-03-08T13:23:49;18.92;;;13.57;;
59930;SDS011;45790;51.538;6.736;2024-03-08T13:26:15;23.38;;;13.05;;
59930;SDS011;45790;51.538;6.736;2024-03-08T13:28:45;15.95;;;12.88;;
59930;SDS011;45790;51.538;6.736;2024-03-08T13:31:10;16.17;;;12.55;;
59930;SDS011;45790;51.538;6.736;2024-03-08T13:33:36;19.15;;;12.75;;
59930;SDS011;45790;51.538;6.736;2024-03-08T13:36:04;18.92;;;12.18;;
59930;SDS011;45790;51.538;6.736;2024-03-08T13:38:34;18.05;;;13.32;;
59930;SDS011;45790;51.538;6.736;2024-03-08T13:41:02;17.02;;;12.30;;
59930;SDS011;45790;51.538;6.736;2024-03-08T13:43:30;15.45;;;11.75;;
59930;SDS011;45790;51.538;6.736;2024-03-08T13:45:59;17.15;;;12.00;;
59930;SDS011;45790;51.538;6.736;2024-03-08T13:48:24;16.05;;;11.38;;
59930;SDS011;45790;51.538;6.736;2024-03-08T13:50:49;15.57;;;11.15;;
59930;SDS011;45790;51.538;6.736;2024-03-08T13:53:14;17.27;;;11.55;;
59930;SDS011;45790;51.538;6.736;2024-03-08T13:55:40;15.90;;;10.30;;
59930;SDS011;45790;51.538;6.736;2024-03-08T13:58:05;15.02;;;11.13;;
59930;SDS011;45790;51.538;6.736;2024-03-08T14:00:34;14.57;;;9.98;;
59930;SDS011;45790;51.538;6.736;2024-03-08T14:02:59;15.07;;;10.23;;
59930;SDS011;45790;51.538;6.736;2024-03-08T14:05:24;12.77;;;9.40;;
59930;SDS011;45790;51.538;6.736;2024-03-08T14:07:49;14.47;;;9.07;;
59930;SDS011;45790;51.538;6.736;2024-03-08T14:10:15;10.45;;;7.03;;
59930;SDS011;45790;51.538;6.736;2024-03-08T14:12:40;10.48;;;7.50;;
59930;SDS011;45790;51.538;6.736;2024-03-08T14:15:07;12.82;;;7.03;;
59930;SDS011;45790;51.538;6.736;2024-03-08T14:17:33;12.60;;;7.70;;
59930;SDS011;45790;51.538;6.736;2024-03-08T14:19:58;11.93;;;7.37;;
59930;SDS011;45790;51.538;6.736;2024-03-08T14:22:24;11.52;;;7.93;;
59930;SDS011;45790;51.538;6.736;2024-03-08T14:24:49;10.20;;;7.67;;
59930;SDS011;45790;51.538;6.736;2024-03-08T14:27:15;12.27;;;6.85;;